Lavale, Maryland
Current Conditions -  °F | °C
As of 12:33 PM on Friday 19 Dec 2014 (Local Time) from KCBE Reporting Station
Overcast Overcast  
Wind Chill: 30°   Ceiling: 3000
Heat Index: 34°   Visibility: 10mi
Dew Point: 23°   Wind: 5mph
Humidity: 65%   Direction: 340°NNW
Pressure: 30.21"   Gusts: NA
Location:  39.6607°N, 78.7452°W
Report Text: KCBE 191733Z AUTO 34004KT 10SM OVC030 01/M05 A3021 RMK AO1
Loading
Personal Weather Stations






























Interactive Weather Map New forecast layout! Learn more

10-Day Weather Forecast

Advertisements
Track Severe Weather on mobile